sensor_id;sensor_type;location;lat;lon;timestamp;P1;durP1;ratioP1;P2;durP2;ratioP2
68993;SDS011;56054;50.968;5.816;2023-05-07T00:01:42;6.68;;;3.67;;
68993;SDS011;56054;50.968;5.816;2023-05-07T00:04:43;5.43;;;3.40;;
68993;SDS011;56054;50.968;5.816;2023-05-07T00:07:43;5.40;;;3.40;;
68993;SDS011;56054;50.968;5.816;2023-05-07T00:10:45;6.30;;;3.22;;
68993;SDS011;56054;50.968;5.816;2023-05-07T00:13:46;8.40;;;3.50;;
68993;SDS011;56054;50.968;5.816;2023-05-07T00:16:47;5.53;;;3.20;;
68993;SDS011;56054;50.968;5.816;2023-05-07T00:19:47;9.82;;;3.13;;
68993;SDS011;56054;50.968;5.816;2023-05-07T00:22:50;5.45;;;2.80;;
68993;SDS011;56054;50.968;5.816;2023-05-07T00:25:58;5.15;;;2.90;;
68993;SDS011;56054;50.968;5.816;2023-05-07T00:28:58;5.78;;;2.88;;
68993;SDS011;56054;50.968;5.816;2023-05-07T00:31:58;5.07;;;3.13;;
68993;SDS011;56054;50.968;5.816;2023-05-07T00:34:59;5.22;;;3.20;;
68993;SDS011;56054;50.968;5.816;2023-05-07T00:37:59;6.50;;;3.20;;
68993;SDS011;56054;50.968;5.816;2023-05-07T00:41:00;5.00;;;3.13;;
68993;SDS011;56054;50.968;5.816;2023-05-07T00:44:00;4.85;;;3.25;;
68993;SDS011;56054;50.968;5.816;2023-05-07T00:47:01;4.97;;;3.38;;
68993;SDS011;56054;50.968;5.816;2023-05-07T00:50:03;8.07;;;3.55;;
68993;SDS011;56054;50.968;5.816;2023-05-07T00:53:04;6.30;;;3.85;;
68993;SDS011;56054;50.968;5.816;2023-05-07T00:56:06;5.95;;;3.83;;
68993;SDS011;56054;50.968;5.816;2023-05-07T00:59:07;6.53;;;3.50;;
68993;SDS011;56054;50.968;5.816;2023-05-07T01:02:08;5.15;;;3.50;;
68993;SDS011;56054;50.968;5.816;2023-05-07T01:05:09;6.57;;;3.70;;
68993;SDS011;56054;50.968;5.816;2023-05-07T01:08:12;10.82;;;3.75;;
68993;SDS011;56054;50.968;5.816;2023-05-07T01:11:14;7.28;;;3.70;;
68993;SDS011;56054;50.968;5.816;2023-05-07T01:14:14;7.47;;;3.63;;
68993;SDS011;56054;50.968;5.816;2023-05-07T01:17:15;5.22;;;3.65;;
68993;SDS011;56054;50.968;5.816;2023-05-07T01:20:18;8.00;;;3.80;;
68993;SDS011;56054;50.968;5.816;2023-05-07T01:23:20;7.20;;;3.85;;
68993;SDS011;56054;50.968;5.816;2023-05-07T01:26:21;8.98;;;3.92;;
68993;SDS011;56054;50.968;5.816;2023-05-07T01:29:21;6.63;;;3.92;;
68993;SDS011;56054;50.968;5.816;2023-05-07T01:32:39;7.57;;;3.58;;
68993;SDS011;56054;50.968;5.816;2023-05-07T01:35:45;5.75;;;3.58;;
68993;SDS011;56054;50.968;5.816;2023-05-07T01:38:47;8.30;;;3.70;;
68993;SDS011;56054;50.968;5.816;2023-05-07T01:41:55;5.65;;;3.90;;
68993;SDS011;56054;50.968;5.816;2023-05-07T01:44:58;8.05;;;4.63;;
68993;SDS011;56054;50.968;5.816;2023-05-07T01:48:00;7.13;;;3.30;;
68993;SDS011;56054;50.968;5.816;2023-05-07T01:51:01;7.35;;;4.13;;
68993;SDS011;56054;50.968;5.816;2023-05-07T01:54:02;7.82;;;4.15;;
68993;SDS011;56054;50.968;5.816;2023-05-07T01:57:05;5.57;;;3.67;;
68993;SDS011;56054;50.968;5.816;2023-05-07T02:00:06;5.65;;;3.92;;
68993;SDS011;56054;50.968;5.816;2023-05-07T02:03:15;7.20;;;3.78;;
68993;SDS011;56054;50.968;5.816;2023-05-07T02:06:25;7.45;;;3.70;;
68993;SDS011;56054;50.968;5.816;2023-05-07T02:20:15;4.95;;;3.35;;
68993;SDS011;56054;50.968;5.816;2023-05-07T02:23:16;5.25;;;3.38;;
68993;SDS011;56054;50.968;5.816;2023-05-07T02:26:17;6.25;;;3.35;;
68993;SDS011;56054;50.968;5.816;2023-05-07T02:29:18;4.90;;;3.55;;
68993;SDS011;56054;50.968;5.816;2023-05-07T02:32:19;8.57;;;4.05;;
68993;SDS011;56054;50.968;5.816;2023-05-07T02:35:20;7.40;;;4.00;;
68993;SDS011;56054;50.968;5.816;2023-05-07T02:38:20;6.85;;;4.28;;
68993;SDS011;56054;50.968;5.816;2023-05-07T02:41:21;9.43;;;3.67;;
68993;SDS011;56054;50.968;5.816;2023-05-07T02:44:21;7.40;;;3.53;;
68993;SDS011;56054;50.968;5.816;2023-05-07T02:47:24;5.10;;;3.42;;
68993;SDS011;56054;50.968;5.816;2023-05-07T02:50:25;5.88;;;3.25;;
68993;SDS011;56054;50.968;5.816;2023-05-07T02:53:26;6.38;;;3.88;;
68993;SDS011;56054;50.968;5.816;2023-05-07T02:56:29;7.43;;;4.18;;
68993;SDS011;56054;50.968;5.816;2023-05-07T02:59:30;6.93;;;4.50;;
68993;SDS011;56054;50.968;5.816;2023-05-07T03:02:31;6.00;;;4.18;;
68993;SDS011;56054;50.968;5.816;2023-05-07T03:05:32;4.75;;;3.72;;
68993;SDS011;56054;50.968;5.816;2023-05-07T03:08:32;9.75;;;3.83;;
68993;SDS011;56054;50.968;5.816;2023-05-07T03:11:33;7.25;;;4.22;;
68993;SDS011;56054;50.968;5.816;2023-05-07T03:14:33;10.57;;;4.32;;
68993;SDS011;56054;50.968;5.816;2023-05-07T03:17:34;6.82;;;3.58;;
68993;SDS011;56054;50.968;5.816;2023-05-07T03:20:35;5.82;;;3.58;;
68993;SDS011;56054;50.968;5.816;2023-05-07T03:23:36;5.65;;;4.30;;
68993;SDS011;56054;50.968;5.816;2023-05-07T03:26:36;5.53;;;4.03;;
68993;SDS011;56054;50.968;5.816;2023-05-07T03:29:37;6.60;;;3.80;;
68993;SDS011;56054;50.968;5.816;2023-05-07T03:32:37;7.22;;;4.05;;
68993;SDS011;56054;50.968;5.816;2023-05-07T03:35:48;7.43;;;3.95;;
68993;SDS011;56054;50.968;5.816;2023-05-07T03:38:54;6.97;;;4.43;;
68993;SDS011;56054;50.968;5.816;2023-05-07T03:41:58;7.68;;;4.28;;
68993;SDS011;56054;50.968;5.816;2023-05-07T03:44:58;8.30;;;4.55;;
68993;SDS011;56054;50.968;5.816;2023-05-07T03:47:59;7.18;;;5.20;;
68993;SDS011;56054;50.968;5.816;2023-05-07T03:51:02;5.55;;;4.50;;
68993;SDS011;56054;50.968;5.816;2023-05-07T03:54:06;7.55;;;4.30;;
68993;SDS011;56054;50.968;5.816;2023-05-07T03:57:08;6.78;;;4.57;;
68993;SDS011;56054;50.968;5.816;2023-05-07T04:10:26;7.28;;;4.93;;
68993;SDS011;56054;50.968;5.816;2023-05-07T04:13:30;8.15;;;4.65;;
68993;SDS011;56054;50.968;5.816;2023-05-07T04:16:34;5.43;;;3.70;;
68993;SDS011;56054;50.968;5.816;2023-05-07T04:19:36;10.15;;;5.18;;
68993;SDS011;56054;50.968;5.816;2023-05-07T04:22:36;7.18;;;4.40;;
68993;SDS011;56054;50.968;5.816;2023-05-07T04:25:38;6.15;;;4.40;;
68993;SDS011;56054;50.968;5.816;2023-05-07T04:28:46;7.10;;;4.50;;
68993;SDS011;56054;50.968;5.816;2023-05-07T04:31:49;7.18;;;4.30;;
68993;SDS011;56054;50.968;5.816;2023-05-07T04:34:49;5.95;;;4.07;;
68993;SDS011;56054;50.968;5.816;2023-05-07T04:37:49;6.85;;;4.45;;
68993;SDS011;56054;50.968;5.816;2023-05-07T04:40:51;9.90;;;4.30;;
68993;SDS011;56054;50.968;5.816;2023-05-07T04:43:55;8.88;;;4.50;;
68993;SDS011;56054;50.968;5.816;2023-05-07T04:46:57;6.50;;;4.82;;
68993;SDS011;56054;50.968;5.816;2023-05-07T04:49:59;6.78;;;4.25;;
68993;SDS011;56054;50.968;5.816;2023-05-07T04:53:00;6.95;;;4.75;;
68993;SDS011;56054;50.968;5.816;2023-05-07T04:56:00;8.88;;;4.72;;
68993;SDS011;56054;50.968;5.816;2023-05-07T04:59:07;10.15;;;4.50;;
68993;SDS011;56054;50.968;5.816;2023-05-07T05:02:08;7.38;;;4.72;;
68993;SDS011;56054;50.968;5.816;2023-05-07T05:05:08;5.97;;;3.97;;
68993;SDS011;56054;50.968;5.816;2023-05-07T05:08:09;8.07;;;4.43;;
68993;SDS011;56054;50.968;5.816;2023-05-07T05:11:13;9.45;;;5.03;;
68993;SDS011;56054;50.968;5.816;2023-05-07T05:14:14;9.75;;;4.78;;
68993;SDS011;56054;50.968;5.816;2023-05-07T05:17:15;6.18;;;4.45;;
68993;SDS011;56054;50.968;5.816;2023-05-07T05:20:15;5.95;;;4.32;;
68993;SDS011;56054;50.968;5.816;2023-05-07T05:23:20;10.23;;;5.00;;
68993;SDS011;56054;50.968;5.816;2023-05-07T05:26:20;7.65;;;4.57;;
68993;SDS011;56054;50.968;5.816;2023-05-07T05:29:21;5.65;;;4.65;;
68993;SDS011;56054;50.968;5.816;2023-05-07T05:32:22;7.97;;;4.63;;
68993;SDS011;56054;50.968;5.816;2023-05-07T05:35:24;8.45;;;4.78;;
68993;SDS011;56054;50.968;5.816;2023-05-07T05:38:25;13.35;;;4.93;;
68993;SDS011;56054;50.968;5.816;2023-05-07T05:41:26;7.13;;;4.55;;
68993;SDS011;56054;50.968;5.816;2023-05-07T05:44:27;7.00;;;4.45;;
68993;SDS011;56054;50.968;5.816;2023-05-07T05:47:27;7.90;;;4.40;;
68993;SDS011;56054;50.968;5.816;2023-05-07T05:50:30;9.23;;;4.38;;
68993;SDS011;56054;50.968;5.816;2023-05-07T05:53:30;5.82;;;4.10;;
68993;SDS011;56054;50.968;5.816;2023-05-07T05:56:31;7.38;;;4.53;;
68993;SDS011;56054;50.968;5.816;2023-05-07T05:59:33;11.00;;;4.50;;
68993;SDS011;56054;50.968;5.816;2023-05-07T06:02:33;6.20;;;4.55;;
68993;SDS011;56054;50.968;5.816;2023-05-07T06:05:34;8.55;;;5.15;;
68993;SDS011;56054;50.968;5.816;2023-05-07T06:08:35;5.60;;;3.95;;
68993;SDS011;56054;50.968;5.816;2023-05-07T06:11:35;9.20;;;4.57;;
68993;SDS011;56054;50.968;5.816;2023-05-07T06:14:36;7.10;;;3.92;;
68993;SDS011;56054;50.968;5.816;2023-05-07T06:17:36;6.55;;;4.07;;
68993;SDS011;56054;50.968;5.816;2023-05-07T06:20:37;9.15;;;4.50;;
68993;SDS011;56054;50.968;5.816;2023-05-07T06:23:41;6.25;;;3.50;;
68993;SDS011;56054;50.968;5.816;2023-05-07T06:26:44;5.50;;;3.65;;
68993;SDS011;56054;50.968;5.816;2023-05-07T06:29:47;6.43;;;4.07;;
68993;SDS011;56054;50.968;5.816;2023-05-07T06:32:50;6.68;;;4.35;;
68993;SDS011;56054;50.968;5.816;2023-05-07T06:35:51;6.63;;;3.75;;
68993;SDS011;56054;50.968;5.816;2023-05-07T06:38:52;4.28;;;3.30;;
68993;SDS011;56054;50.968;5.816;2023-05-07T06:41:53;8.10;;;3.65;;
68993;SDS011;56054;50.968;5.816;2023-05-07T06:45:01;4.93;;;3.88;;
68993;SDS011;56054;50.968;5.816;2023-05-07T06:48:05;5.60;;;3.03;;
68993;SDS011;56054;50.968;5.816;2023-05-07T06:51:10;10.27;;;3.78;;
68993;SDS011;56054;50.968;5.816;2023-05-07T06:54:10;5.72;;;3.30;;
68993;SDS011;56054;50.968;5.816;2023-05-07T06:57:13;5.15;;;2.83;;
68993;SDS011;56054;50.968;5.816;2023-05-07T07:00:18;5.13;;;3.30;;
68993;SDS011;56054;50.968;5.816;2023-05-07T07:03:26;7.82;;;3.10;;
68993;SDS011;56054;50.968;5.816;2023-05-07T07:06:29;5.05;;;3.15;;
68993;SDS011;56054;50.968;5.816;2023-05-07T07:09:29;4.97;;;2.88;;
68993;SDS011;56054;50.968;5.816;2023-05-07T07:12:31;6.68;;;2.70;;
68993;SDS011;56054;50.968;5.816;2023-05-07T07:15:31;7.13;;;3.08;;
68993;SDS011;56054;50.968;5.816;2023-05-07T07:18:34;6.70;;;2.83;;
68993;SDS011;56054;50.968;5.816;2023-05-07T07:21:35;4.43;;;2.60;;
68993;SDS011;56054;50.968;5.816;2023-05-07T07:24:35;4.72;;;3.15;;
68993;SDS011;56054;50.968;5.816;2023-05-07T07:27:39;5.40;;;2.97;;
68993;SDS011;56054;50.968;5.816;2023-05-07T07:30:39;5.43;;;2.45;;
68993;SDS011;56054;50.968;5.816;2023-05-07T07:33:40;3.75;;;2.17;;
68993;SDS011;56054;50.968;5.816;2023-05-07T07:36:42;7.22;;;2.80;;
68993;SDS011;56054;50.968;5.816;2023-05-07T07:39:43;5.65;;;2.30;;
68993;SDS011;56054;50.968;5.816;2023-05-07T07:42:45;4.38;;;2.20;;
68993;SDS011;56054;50.968;5.816;2023-05-07T07:45:46;6.25;;;2.03;;
68993;SDS011;56054;50.968;5.816;2023-05-07T07:48:47;6.22;;;1.80;;
68993;SDS011;56054;50.968;5.816;2023-05-07T07:51:47;4.22;;;2.08;;
68993;SDS011;56054;50.968;5.816;2023-05-07T07:54:54;3.55;;;1.75;;
68993;SDS011;56054;50.968;5.816;2023-05-07T07:57:56;2.88;;;1.60;;
68993;SDS011;56054;50.968;5.816;2023-05-07T08:00:57;3.45;;;1.98;;
68993;SDS011;56054;50.968;5.816;2023-05-07T08:04:00;4.43;;;2.28;;
68993;SDS011;56054;50.968;5.816;2023-05-07T08:07:04;3.05;;;1.95;;
68993;SDS011;56054;50.968;5.816;2023-05-07T08:10:07;2.28;;;1.88;;
68993;SDS011;56054;50.968;5.816;2023-05-07T08:13:09;3.75;;;1.90;;
68993;SDS011;56054;50.968;5.816;2023-05-07T08:16:11;2.17;;;1.55;;
68993;SDS011;56054;50.968;5.816;2023-05-07T08:19:12;3.80;;;2.00;;
68993;SDS011;56054;50.968;5.816;2023-05-07T08:22:13;4.90;;;1.63;;
68993;SDS011;56054;50.968;5.816;2023-05-07T08:25:14;14.02;;;2.05;;
68993;SDS011;56054;50.968;5.816;2023-05-07T08:28:14;3.65;;;1.88;;
68993;SDS011;56054;50.968;5.816;2023-05-07T08:31:15;3.72;;;1.50;;
68993;SDS011;56054;50.968;5.816;2023-05-07T08:34:18;4.32;;;1.75;;
68993;SDS011;56054;50.968;5.816;2023-05-07T08:37:20;6.07;;;1.65;;
68993;SDS011;56054;50.968;5.816;2023-05-07T08:40:25;4.03;;;1.42;;
68993;SDS011;56054;50.968;5.816;2023-05-07T08:43:26;3.03;;;1.30;;
68993;SDS011;56054;50.968;5.816;2023-05-07T08:46:28;3.20;;;1.52;;
68993;SDS011;56054;50.968;5.816;2023-05-07T08:49:31;1.80;;;1.10;;
68993;SDS011;56054;50.968;5.816;2023-05-07T08:59:14;7.93;;;1.83;;
68993;SDS011;56054;50.968;5.816;2023-05-07T09:02:16;7.05;;;1.67;;
68993;SDS011;56054;50.968;5.816;2023-05-07T09:05:17;3.25;;;1.30;;
68993;SDS011;56054;50.968;5.816;2023-05-07T09:08:17;1.98;;;1.35;;
68993;SDS011;56054;50.968;5.816;2023-05-07T09:11:21;2.38;;;1.67;;
68993;SDS011;56054;50.968;5.816;2023-05-07T09:14:22;4.82;;;1.40;;
68993;SDS011;56054;50.968;5.816;2023-05-07T09:17:22;3.08;;;1.48;;
68993;SDS011;56054;50.968;5.816;2023-05-07T09:20:23;6.60;;;1.48;;
68993;SDS011;56054;50.968;5.816;2023-05-07T09:23:24;4.00;;;1.83;;
68993;SDS011;56054;50.968;5.816;2023-05-07T09:26:27;2.83;;;1.50;;
68993;SDS011;56054;50.968;5.816;2023-05-07T09:29:27;3.10;;;1.65;;
68993;SDS011;56054;50.968;5.816;2023-05-07T09:32:28;3.55;;;1.55;;
68993;SDS011;56054;50.968;5.816;2023-05-07T09:35:30;3.92;;;1.73;;
68993;SDS011;56054;50.968;5.816;2023-05-07T09:38:35;4.30;;;1.85;;
68993;SDS011;56054;50.968;5.816;2023-05-07T09:41:44;7.03;;;1.70;;
68993;SDS011;56054;50.968;5.816;2023-05-07T09:45:08;6.57;;;1.67;;
68993;SDS011;56054;50.968;5.816;2023-05-07T09:48:12;5.30;;;1.15;;
68993;SDS011;56054;50.968;5.816;2023-05-07T09:51:21;3.95;;;2.20;;
68993;SDS011;56054;50.968;5.816;2023-05-07T09:54:29;3.63;;;1.58;;
68993;SDS011;56054;50.968;5.816;2023-05-07T09:57:30;3.08;;;1.30;;
68993;SDS011;56054;50.968;5.816;2023-05-07T10:00:36;3.13;;;1.40;;
68993;SDS011;56054;50.968;5.816;2023-05-07T10:03:45;5.80;;;1.67;;
68993;SDS011;56054;50.968;5.816;2023-05-07T10:06:46;4.15;;;1.60;;
68993;SDS011;56054;50.968;5.816;2023-05-07T10:09:48;3.33;;;1.40;;
68993;SDS011;56054;50.968;5.816;2023-05-07T10:13:00;1.95;;;1.40;;
68993;SDS011;56054;50.968;5.816;2023-05-07T10:16:06;3.03;;;1.40;;
68993;SDS011;56054;50.968;5.816;2023-05-07T10:19:13;3.17;;;1.45;;
68993;SDS011;56054;50.968;5.816;2023-05-07T10:22:18;2.17;;;1.05;;
68993;SDS011;56054;50.968;5.816;2023-05-07T10:25:22;2.97;;;1.30;;
68993;SDS011;56054;50.968;5.816;2023-05-07T10:28:28;5.40;;;1.65;;
68993;SDS011;56054;50.968;5.816;2023-05-07T10:34:40;2.13;;;1.40;;
68993;SDS011;56054;50.968;5.816;2023-05-07T10:37:44;7.03;;;1.83;;
68993;SDS011;56054;50.968;5.816;2023-05-07T10:40:45;6.35;;;1.65;;
68993;SDS011;56054;50.968;5.816;2023-05-07T10:43:46;3.67;;;1.35;;
68993;SDS011;56054;50.968;5.816;2023-05-07T10:47:04;11.93;;;1.75;;
68993;SDS011;56054;50.968;5.816;2023-05-07T11:03:24;3.35;;;1.70;;
68993;SDS011;56054;50.968;5.816;2023-05-07T11:06:31;5.63;;;3.60;;
68993;SDS011;56054;50.968;5.816;2023-05-07T11:13:06;6.32;;;2.05;;
68993;SDS011;56054;50.968;5.816;2023-05-07T11:16:17;2.72;;;1.92;;
68993;SDS011;56054;50.968;5.816;2023-05-07T11:22:56;5.63;;;2.13;;
68993;SDS011;56054;50.968;5.816;2023-05-07T11:26:12;14.00;;;8.73;;
68993;SDS011;56054;50.968;5.816;2023-05-07T11:29:14;4.18;;;2.30;;
68993;SDS011;56054;50.968;5.816;2023-05-07T11:32:26;8.52;;;2.10;;
68993;SDS011;56054;50.968;5.816;2023-05-07T11:35:28;4.53;;;1.63;;
68993;SDS011;56054;50.968;5.816;2023-05-07T11:38:35;7.68;;;1.88;;
68993;SDS011;56054;50.968;5.816;2023-05-07T11:41:36;14.10;;;3.58;;
68993;SDS011;56054;50.968;5.816;2023-05-07T11:44:43;20.25;;;6.22;;
68993;SDS011;56054;50.968;5.816;2023-05-07T11:47:44;13.63;;;4.22;;
68993;SDS011;56054;50.968;5.816;2023-05-07T11:53:53;11.75;;;4.57;;
68993;SDS011;56054;50.968;5.816;2023-05-07T11:56:53;12.27;;;4.05;;
68993;SDS011;56054;50.968;5.816;2023-05-07T11:59:58;12.18;;;3.58;;
68993;SDS011;56054;50.968;5.816;2023-05-07T12:03:06;8.77;;;4.65;;
68993;SDS011;56054;50.968;5.816;2023-05-07T12:06:06;24.48;;;11.18;;
68993;SDS011;56054;50.968;5.816;2023-05-07T12:09:07;9.48;;;5.32;;
68993;SDS011;56054;50.968;5.816;2023-05-07T12:12:08;8.70;;;3.63;;
68993;SDS011;56054;50.968;5.816;2023-05-07T12:15:08;5.03;;;3.13;;
68993;SDS011;56054;50.968;5.816;2023-05-07T12:18:10;6.13;;;2.90;;
68993;SDS011;56054;50.968;5.816;2023-05-07T12:21:11;6.13;;;2.92;;
68993;SDS011;56054;50.968;5.816;2023-05-07T12:24:11;8.77;;;2.85;;
68993;SDS011;56054;50.968;5.816;2023-05-07T12:27:14;8.10;;;3.47;;
68993;SDS011;56054;50.968;5.816;2023-05-07T12:30:16;7.03;;;3.55;;
68993;SDS011;56054;50.968;5.816;2023-05-07T12:33:18;8.27;;;3.67;;
68993;SDS011;56054;50.968;5.816;2023-05-07T12:36:19;9.90;;;3.50;;
68993;SDS011;56054;50.968;5.816;2023-05-07T12:39:19;9.85;;;3.30;;
68993;SDS011;56054;50.968;5.816;2023-05-07T12:42:20;6.05;;;3.83;;
68993;SDS011;56054;50.968;5.816;2023-05-07T12:45:20;7.90;;;3.65;;
68993;SDS011;56054;50.968;5.816;2023-05-07T12:48:21;6.47;;;3.17;;
68993;SDS011;56054;50.968;5.816;2023-05-07T12:51:22;9.52;;;4.35;;
68993;SDS011;56054;50.968;5.816;2023-05-07T12:54:29;4.90;;;2.67;;
68993;SDS011;56054;50.968;5.816;2023-05-07T12:57:41;8.07;;;3.05;;
68993;SDS011;56054;50.968;5.816;2023-05-07T13:00:42;4.30;;;2.72;;
68993;SDS011;56054;50.968;5.816;2023-05-07T13:03:47;7.75;;;2.92;;
68993;SDS011;56054;50.968;5.816;2023-05-07T13:06:56;8.70;;;3.17;;
68993;SDS011;56054;50.968;5.816;2023-05-07T13:09:57;5.07;;;2.63;;
68993;SDS011;56054;50.968;5.816;2023-05-07T13:12:57;6.28;;;4.38;;
68993;SDS011;56054;50.968;5.816;2023-05-07T13:15:57;5.65;;;3.00;;
68993;SDS011;56054;50.968;5.816;2023-05-07T13:18:58;5.85;;;3.42;;
68993;SDS011;56054;50.968;5.816;2023-05-07T13:21:59;7.35;;;4.20;;
68993;SDS011;56054;50.968;5.816;2023-05-07T13:24:59;10.73;;;5.05;;
68993;SDS011;56054;50.968;5.816;2023-05-07T13:27:59;7.57;;;3.88;;
68993;SDS011;56054;50.968;5.816;2023-05-07T13:31:00;10.60;;;3.97;;
68993;SDS011;56054;50.968;5.816;2023-05-07T13:34:00;12.75;;;4.38;;
68993;SDS011;56054;50.968;5.816;2023-05-07T13:37:01;4.72;;;2.67;;
68993;SDS011;56054;50.968;5.816;2023-05-07T13:40:01;4.25;;;1.77;;
68993;SDS011;56054;50.968;5.816;2023-05-07T13:43:02;6.32;;;1.92;;
68993;SDS011;56054;50.968;5.816;2023-05-07T13:46:02;5.57;;;2.38;;
68993;SDS011;56054;50.968;5.816;2023-05-07T13:49:03;5.65;;;2.50;;
68993;SDS011;56054;50.968;5.816;2023-05-07T13:52:03;6.85;;;2.25;;
68993;SDS011;56054;50.968;5.816;2023-05-07T13:55:04;3.63;;;2.50;;
68993;SDS011;56054;50.968;5.816;2023-05-07T13:58:05;5.32;;;2.10;;
68993;SDS011;56054;50.968;5.816;2023-05-07T14:01:05;4.40;;;1.83;;
68993;SDS011;56054;50.968;5.816;2023-05-07T14:04:06;3.22;;;1.50;;
68993;SDS011;56054;50.968;5.816;2023-05-07T14:07:06;6.13;;;1.92;;
68993;SDS011;56054;50.968;5.816;2023-05-07T14:10:07;6.15;;;1.75;;
68993;SDS011;56054;50.968;5.816;2023-05-07T14:13:07;5.80;;;2.28;;
68993;SDS011;56054;50.968;5.816;2023-05-07T14:16:08;2.85;;;2.42;;
68993;SDS011;56054;50.968;5.816;2023-05-07T14:19:08;6.13;;;3.00;;
68993;SDS011;56054;50.968;5.816;2023-05-07T14:22:09;7.72;;;3.28;;
68993;SDS011;56054;50.968;5.816;2023-05-07T14:25:10;9.93;;;4.53;;
68993;SDS011;56054;50.968;5.816;2023-05-07T14:28:10;7.97;;;4.15;;
68993;SDS011;56054;50.968;5.816;2023-05-07T14:31:11;7.30;;;3.55;;
68993;SDS011;56054;50.968;5.816;2023-05-07T14:34:11;7.07;;;3.78;;
68993;SDS011;56054;50.968;5.816;2023-05-07T14:37:12;8.73;;;3.63;;
68993;SDS011;56054;50.968;5.816;2023-05-07T14:40:13;6.95;;;2.95;;
68993;SDS011;56054;50.968;5.816;2023-05-07T14:43:14;8.23;;;4.20;;
68993;SDS011;56054;50.968;5.816;2023-05-07T14:46:15;7.30;;;4.05;;
68993;SDS011;56054;50.968;5.816;2023-05-07T14:49:19;7.13;;;4.03;;
68993;SDS011;56054;50.968;5.816;2023-05-07T14:52:19;11.38;;;5.50;;
68993;SDS011;56054;50.968;5.816;2023-05-07T14:55:21;8.27;;;4.55;;
68993;SDS011;56054;50.968;5.816;2023-05-07T14:58:22;13.20;;;4.82;;
68993;SDS011;56054;50.968;5.816;2023-05-07T15:01:22;5.95;;;2.10;;
68993;SDS011;56054;50.968;5.816;2023-05-07T15:04:23;5.68;;;2.70;;
68993;SDS011;56054;50.968;5.816;2023-05-07T15:07:24;7.93;;;2.33;;
68993;SDS011;56054;50.968;5.816;2023-05-07T15:10:25;5.30;;;2.08;;
68993;SDS011;56054;50.968;5.816;2023-05-07T15:13:26;6.00;;;1.90;;
68993;SDS011;56054;50.968;5.816;2023-05-07T15:16:26;4.93;;;1.90;;
68993;SDS011;56054;50.968;5.816;2023-05-07T15:19:26;4.00;;;2.00;;
68993;SDS011;56054;50.968;5.816;2023-05-07T15:22:27;4.43;;;2.10;;
68993;SDS011;56054;50.968;5.816;2023-05-07T15:25:27;3.08;;;1.85;;
68993;SDS011;56054;50.968;5.816;2023-05-07T15:28:28;3.53;;;2.15;;
68993;SDS011;56054;50.968;5.816;2023-05-07T15:31:30;7.03;;;2.20;;
68993;SDS011;56054;50.968;5.816;2023-05-07T15:34:31;5.38;;;2.47;;
68993;SDS011;56054;50.968;5.816;2023-05-07T15:37:31;4.35;;;2.20;;
68993;SDS011;56054;50.968;5.816;2023-05-07T15:40:32;5.88;;;2.40;;
68993;SDS011;56054;50.968;5.816;2023-05-07T15:43:32;2.80;;;1.83;;
68993;SDS011;56054;50.968;5.816;2023-05-07T15:46:33;5.18;;;2.30;;
68993;SDS011;56054;50.968;5.816;2023-05-07T15:49:33;3.95;;;2.50;;
68993;SDS011;56054;50.968;5.816;2023-05-07T15:55:37;3.30;;;2.00;;
68993;SDS011;56054;50.968;5.816;2023-05-07T15:58:37;6.75;;;2.50;;
68993;SDS011;56054;50.968;5.816;2023-05-07T16:08:24;6.57;;;2.35;;
68993;SDS011;56054;50.968;5.816;2023-05-07T16:11:25;4.50;;;2.58;;
68993;SDS011;56054;50.968;5.816;2023-05-07T16:14:26;4.38;;;2.38;;
68993;SDS011;56054;50.968;5.816;2023-05-07T16:17:26;3.97;;;2.20;;
68993;SDS011;56054;50.968;5.816;2023-05-07T16:20:27;8.48;;;2.63;;
68993;SDS011;56054;50.968;5.816;2023-05-07T16:23:28;7.35;;;2.45;;
68993;SDS011;56054;50.968;5.816;2023-05-07T16:26:29;4.65;;;2.55;;
68993;SDS011;56054;50.968;5.816;2023-05-07T16:29:29;6.05;;;2.78;;
68993;SDS011;56054;50.968;5.816;2023-05-07T16:32:29;5.00;;;2.15;;
68993;SDS011;56054;50.968;5.816;2023-05-07T16:35:30;6.30;;;2.22;;
68993;SDS011;56054;50.968;5.816;2023-05-07T16:38:31;5.18;;;1.83;;
68993;SDS011;56054;50.968;5.816;2023-05-07T16:41:32;7.95;;;2.45;;
68993;SDS011;56054;50.968;5.816;2023-05-07T16:44:33;5.60;;;2.33;;
68993;SDS011;56054;50.968;5.816;2023-05-07T16:47:33;3.53;;;2.10;;
68993;SDS011;56054;50.968;5.816;2023-05-07T16:50:33;7.20;;;2.10;;
68993;SDS011;56054;50.968;5.816;2023-05-07T16:53:34;5.32;;;2.38;;
68993;SDS011;56054;50.968;5.816;2023-05-07T16:56:34;10.75;;;2.33;;
68993;SDS011;56054;50.968;5.816;2023-05-07T16:59:35;4.40;;;2.50;;
68993;SDS011;56054;50.968;5.816;2023-05-07T17:02:35;8.15;;;2.05;;
68993;SDS011;56054;50.968;5.816;2023-05-07T17:05:36;3.80;;;1.95;;
68993;SDS011;56054;50.968;5.816;2023-05-07T17:08:36;5.50;;;1.67;;
68993;SDS011;56054;50.968;5.816;2023-05-07T17:11:36;5.95;;;2.20;;
68993;SDS011;56054;50.968;5.816;2023-05-07T17:14:37;5.85;;;2.05;;
68993;SDS011;56054;50.968;5.816;2023-05-07T17:17:38;7.88;;;2.58;;
68993;SDS011;56054;50.968;5.816;2023-05-07T17:20:39;7.45;;;2.40;;
68993;SDS011;56054;50.968;5.816;2023-05-07T17:23:39;3.75;;;1.88;;
68993;SDS011;56054;50.968;5.816;2023-05-07T17:26:40;6.38;;;2.38;;
68993;SDS011;56054;50.968;5.816;2023-05-07T17:29:48;4.43;;;2.00;;
68993;SDS011;56054;50.968;5.816;2023-05-07T17:32:49;5.22;;;1.50;;
68993;SDS011;56054;50.968;5.816;2023-05-07T17:35:51;4.22;;;1.52;;
68993;SDS011;56054;50.968;5.816;2023-05-07T17:38:52;2.75;;;1.30;;
68993;SDS011;56054;50.968;5.816;2023-05-07T17:41:52;3.95;;;1.67;;
68993;SDS011;56054;50.968;5.816;2023-05-07T17:44:53;4.70;;;1.65;;
68993;SDS011;56054;50.968;5.816;2023-05-07T17:47:53;2.47;;;1.33;;
68993;SDS011;56054;50.968;5.816;2023-05-07T17:50:59;4.53;;;1.40;;
68993;SDS011;56054;50.968;5.816;2023-05-07T17:54:00;4.85;;;1.38;;
68993;SDS011;56054;50.968;5.816;2023-05-07T17:57:00;3.78;;;1.63;;
68993;SDS011;56054;50.968;5.816;2023-05-07T18:00:01;4.25;;;1.25;;
68993;SDS011;56054;50.968;5.816;2023-05-07T18:03:09;6.18;;;1.42;;
68993;SDS011;56054;50.968;5.816;2023-05-07T18:06:22;2.33;;;1.42;;
68993;SDS011;56054;50.968;5.816;2023-05-07T18:09:22;5.47;;;1.80;;
68993;SDS011;56054;50.968;5.816;2023-05-07T18:12:24;5.07;;;1.40;;
68993;SDS011;56054;50.968;5.816;2023-05-07T18:15:31;3.17;;;1.75;;
68993;SDS011;56054;50.968;5.816;2023-05-07T18:18:32;4.85;;;1.80;;
68993;SDS011;56054;50.968;5.816;2023-05-07T18:21:32;4.45;;;2.22;;
68993;SDS011;56054;50.968;5.816;2023-05-07T18:24:32;2.83;;;1.58;;
68993;SDS011;56054;50.968;5.816;2023-05-07T18:27:33;3.20;;;1.35;;
68993;SDS011;56054;50.968;5.816;2023-05-07T18:30:33;4.07;;;2.00;;
68993;SDS011;56054;50.968;5.816;2023-05-07T18:33:34;4.30;;;1.63;;
68993;SDS011;56054;50.968;5.816;2023-05-07T18:36:35;4.95;;;1.73;;
68993;SDS011;56054;50.968;5.816;2023-05-07T18:39:35;5.30;;;1.70;;
68993;SDS011;56054;50.968;5.816;2023-05-07T18:42:38;6.63;;;1.80;;
68993;SDS011;56054;50.968;5.816;2023-05-07T18:45:38;6.32;;;1.90;;
68993;SDS011;56054;50.968;5.816;2023-05-07T18:48:38;5.35;;;2.08;;
68993;SDS011;56054;50.968;5.816;2023-05-07T18:51:39;4.70;;;1.88;;
68993;SDS011;56054;50.968;5.816;2023-05-07T18:54:39;8.52;;;1.90;;
68993;SDS011;56054;50.968;5.816;2023-05-07T18:57:40;4.65;;;1.90;;
68993;SDS011;56054;50.968;5.816;2023-05-07T19:00:40;5.45;;;2.03;;
68993;SDS011;56054;50.968;5.816;2023-05-07T19:03:40;5.32;;;2.20;;
68993;SDS011;56054;50.968;5.816;2023-05-07T19:06:41;4.25;;;2.35;;
68993;SDS011;56054;50.968;5.816;2023-05-07T19:09:41;5.47;;;2.35;;
68993;SDS011;56054;50.968;5.816;2023-05-07T19:12:42;8.88;;;3.22;;
68993;SDS011;56054;50.968;5.816;2023-05-07T19:15:42;8.52;;;2.75;;
68993;SDS011;56054;50.968;5.816;2023-05-07T19:18:43;6.03;;;3.20;;
68993;SDS011;56054;50.968;5.816;2023-05-07T19:21:43;9.65;;;4.53;;